createdAt,value
2019-02-23T00:01:04.692Z,33.98
2019-02-23T00:03:30.993Z,33.95
2019-02-23T00:05:57.343Z,33.91
2019-02-23T00:08:23.688Z,33.87
2019-02-23T00:10:50.084Z,33.89
2019-02-23T00:13:16.444Z,33.80
2019-02-23T00:15:42.827Z,33.77
2019-02-23T00:18:09.461Z,33.81
2019-02-23T00:20:35.580Z,33.77
2019-02-23T00:23:02.003Z,33.69
2019-02-23T00:25:28.422Z,33.67
2019-02-23T00:27:54.771Z,33.58
2019-02-23T00:30:21.125Z,33.50
2019-02-23T00:32:47.568Z,33.45
2019-02-23T00:35:13.990Z,33.44
2019-02-23T00:37:40.335Z,33.38
2019-02-23T00:40:06.947Z,33.37
2019-02-23T00:42:33.308Z,33.32
2019-02-23T00:44:59.660Z,33.26
2019-02-23T00:47:25.994Z,33.22
2019-02-23T00:49:52.368Z,33.19
2019-02-23T00:52:18.767Z,33.03
2019-02-23T00:54:45.104Z,33.06
2019-02-23T00:57:11.506Z,33.04
2019-02-23T00:59:37.938Z,33.01
2019-02-23T01:02:04.315Z,32.98
2019-02-23T01:04:30.659Z,33.00
2019-02-23T01:06:57.064Z,32.94
2019-02-23T01:09:23.496Z,32.83
2019-02-23T01:11:49.808Z,32.79
2019-02-23T01:14:16.143Z,32.75
2019-02-23T01:16:42.529Z,32.69
2019-02-23T01:19:08.897Z,32.63
2019-02-23T01:21:35.397Z,32.62
2019-02-23T01:24:01.766Z,32.49
2019-02-23T01:26:28.126Z,32.46
2019-02-23T01:28:54.503Z,32.51
2019-02-23T01:31:20.858Z,32.46
2019-02-23T01:33:47.258Z,32.40
2019-02-23T01:36:13.596Z,32.38
2019-02-23T01:38:39.952Z,32.38
2019-02-23T01:41:06.287Z,32.29
2019-02-23T01:43:32.675Z,32.26
2019-02-23T01:45:59.042Z,32.16
2019-02-23T01:48:25.399Z,32.11
2019-02-23T01:50:51.751Z,32.01
2019-02-23T01:53:18.144Z,32.01
2019-02-23T01:55:44.516Z,32.05
2019-02-23T01:58:10.993Z,32.00
2019-02-23T02:00:37.334Z,31.94
2019-02-23T02:03:03.677Z,31.86
2019-02-23T02:05:30.088Z,31.89
2019-02-23T02:07:56.439Z,31.86
2019-02-23T02:10:22.783Z,31.81
2019-02-23T02:12:49.140Z,31.74
2019-02-23T02:15:15.548Z,31.68
2019-02-23T02:17:41.940Z,31.66
2019-02-23T02:20:11.329Z,31.61
2019-02-23T02:22:34.612Z,31.65
2019-02-23T02:25:01.067Z,31.65
2019-02-23T02:27:27.499Z,31.60
2019-02-23T02:29:53.819Z,31.60
2019-02-23T02:32:20.355Z,31.60
2019-02-23T02:34:46.704Z,31.58
2019-02-23T02:37:13.044Z,31.51
2019-02-23T02:39:39.386Z,31.47
2019-02-23T02:42:05.742Z,31.41
2019-02-23T02:44:32.159Z,31.45
2019-02-23T02:46:58.548Z,31.47
2019-02-23T02:49:24.907Z,31.46
2019-02-23T02:51:51.303Z,31.45
2019-02-23T02:54:17.665Z,31.37
2019-02-23T02:56:44.005Z,31.36
2019-02-23T02:59:10.365Z,31.37
2019-02-23T03:01:36.837Z,31.38
2019-02-23T03:04:03.174Z,31.29
2019-02-23T03:06:29.503Z,31.34
2019-02-23T03:08:55.856Z,31.34
2019-02-23T03:11:22.202Z,31.29
2019-02-23T03:13:48.557Z,31.21
2019-02-23T03:16:14.927Z,31.21
2019-02-23T03:18:42.691Z,31.23
2019-02-23T03:21:07.850Z,31.21
2019-02-23T03:23:34.181Z,31.15
2019-02-23T03:26:00.569Z,31.14
2019-02-23T03:28:27.781Z,31.19
2019-02-23T03:30:54.125Z,31.12
2019-02-23T03:33:20.479Z,31.21
2019-02-23T03:35:46.839Z,31.15
2019-02-23T03:38:13.341Z,31.12
2019-02-23T03:40:39.731Z,31.04
2019-02-23T03:43:06.104Z,31.07
2019-02-23T03:45:32.452Z,31.04
2019-02-23T03:47:58.871Z,31.06
2019-02-23T03:50:25.251Z,31.01
2019-02-23T03:52:51.633Z,30.92
2019-02-23T03:55:17.980Z,30.98
2019-02-23T03:57:44.364Z,30.93
2019-02-23T04:00:10.726Z,30.89
2019-02-23T04:02:37.102Z,30.89
2019-02-23T04:05:03.436Z,30.94
2019-02-23T04:07:29.782Z,30.88
2019-02-23T04:09:56.210Z,30.87
2019-02-23T04:12:22.663Z,30.77
2019-02-23T04:14:49.017Z,30.80
2019-02-23T04:17:15.372Z,30.78
2019-02-23T04:19:41.753Z,30.75
2019-02-23T04:22:08.111Z,30.74
2019-02-23T04:24:34.580Z,30.83
2019-02-23T04:27:00.973Z,30.73
2019-02-23T04:29:27.354Z,30.71
2019-02-23T04:31:53.785Z,30.72
2019-02-23T04:34:20.153Z,30.67
2019-02-23T04:36:46.504Z,30.55
2019-02-23T04:39:12.949Z,30.72
2019-02-23T04:41:39.218Z,30.67
2019-02-23T04:44:05.574Z,30.82
2019-02-23T04:46:31.968Z,30.71
2019-02-23T04:48:58.342Z,30.73
2019-02-23T04:51:24.731Z,30.70
2019-02-23T04:53:51.103Z,30.73
2019-02-23T04:56:17.575Z,30.73
2019-02-23T04:58:43.927Z,30.71
2019-02-23T05:01:10.439Z,30.64
2019-02-23T05:03:36.797Z,30.78
2019-02-23T05:06:03.151Z,30.72
2019-02-23T05:08:29.596Z,30.67
2019-02-23T05:10:55.908Z,30.71
2019-02-23T05:13:22.269Z,30.60
2019-02-23T05:15:48.601Z,30.55
2019-02-23T05:18:14.990Z,30.64
2019-02-23T05:20:41.342Z,30.72
2019-02-23T05:23:07.670Z,30.78
2019-02-23T05:25:34.007Z,30.68
2019-02-23T05:28:00.378Z,30.62
2019-02-23T05:30:26.746Z,30.73
2019-02-23T05:32:53.041Z,30.72
2019-02-23T05:35:22.224Z,30.60
2019-02-23T05:37:48.561Z,30.62
2019-02-23T05:40:14.901Z,30.73
2019-02-23T05:42:41.331Z,30.67
2019-02-23T05:45:07.641Z,30.63
2019-02-23T05:47:33.963Z,30.68
2019-02-23T05:50:00.382Z,30.55
2019-02-23T05:52:26.648Z,30.58
2019-02-23T05:54:52.983Z,30.45
2019-02-23T05:57:19.331Z,30.80
2019-02-23T05:59:45.763Z,30.69
2019-02-23T06:02:12.099Z,30.62
2019-02-23T06:04:38.740Z,30.67
2019-02-23T06:07:05.040Z,30.70
2019-02-23T06:09:31.397Z,30.55
2019-02-23T06:11:57.817Z,30.44
2019-02-23T06:14:24.155Z,30.44
2019-02-23T06:16:50.536Z,30.52
2019-02-23T06:19:17.023Z,30.49
2019-02-23T06:21:53.081Z,30.53
2019-02-23T06:24:09.737Z,30.42
2019-02-23T06:26:36.068Z,30.56
2019-02-23T06:29:02.422Z,30.48
2019-02-23T06:31:28.777Z,30.54
2019-02-23T06:33:55.166Z,30.43
2019-02-23T06:36:21.460Z,30.22
2019-02-23T06:38:47.847Z,30.25
2019-02-23T06:41:14.308Z,30.29
2019-02-23T06:43:45.158Z,30.26
2019-02-23T06:46:11.498Z,30.17
2019-02-23T06:48:37.847Z,30.09
2019-02-23T06:51:04.201Z,30.05
2019-02-23T06:53:30.533Z,30.08
2019-02-23T06:55:56.934Z,30.05
2019-02-23T06:58:23.245Z,30.07
2019-02-23T07:00:49.574Z,30.50
2019-02-23T07:03:15.974Z,30.75
2019-02-23T07:05:42.296Z,30.49
2019-02-23T07:08:08.618Z,30.55
2019-02-23T07:10:34.955Z,30.33
2019-02-23T07:13:01.290Z,30.48
2019-02-23T07:15:27.630Z,30.43
2019-02-23T07:17:54.010Z,30.44
2019-02-23T07:20:20.300Z,30.24
2019-02-23T07:22:46.672Z,30.33
2019-02-23T07:25:13.008Z,30.28
2019-02-23T07:27:39.502Z,30.28
2019-02-23T07:30:05.831Z,30.23
2019-02-23T07:32:32.214Z,29.98
2019-02-23T07:34:58.547Z,29.82
2019-02-23T07:37:25.034Z,29.69
2019-02-23T07:39:51.355Z,29.68
2019-02-23T07:42:17.716Z,29.59
2019-02-23T07:44:44.092Z,29.52
2019-02-23T07:47:10.429Z,29.46
2019-02-23T07:49:36.846Z,29.47
2019-02-23T07:52:03.219Z,29.35
2019-02-23T07:54:29.549Z,29.40
2019-02-23T07:56:55.918Z,29.30
2019-02-23T07:59:22.285Z,29.25
2019-02-23T08:01:48.668Z,29.16
2019-02-23T08:04:14.997Z,29.19
2019-02-23T08:06:41.500Z,29.05
2019-02-23T08:09:07.815Z,29.11
2019-02-23T08:11:34.183Z,29.10
2019-02-23T08:14:00.594Z,28.94
2019-02-23T08:16:26.966Z,29.05
2019-02-23T08:18:53.295Z,28.92
2019-02-23T08:21:19.673Z,28.89
2019-02-23T08:23:46.003Z,28.88
2019-02-23T08:26:12.360Z,28.89
2019-02-23T08:28:38.698Z,28.85
2019-02-23T08:31:05.011Z,28.82
2019-02-23T08:33:31.392Z,28.73
2019-02-23T08:35:57.729Z,28.75
2019-02-23T08:38:24.062Z,28.79
2019-02-23T08:40:50.427Z,28.70
2019-02-23T08:43:16.797Z,28.66
2019-02-23T08:45:43.134Z,28.80
2019-02-23T08:48:09.559Z,28.88
2019-02-23T08:50:35.888Z,28.76
2019-02-23T08:53:02.221Z,28.78
2019-02-23T08:55:28.555Z,28.63
2019-02-23T08:57:54.882Z,28.67
2019-02-23T09:00:21.209Z,28.81
2019-02-23T09:02:47.582Z,28.81
2019-02-23T09:05:13.953Z,28.80
2019-02-23T09:07:40.298Z,28.81
2019-02-23T09:10:06.626Z,28.80
2019-02-23T09:12:32.971Z,28.69
2019-02-23T09:14:59.303Z,28.79
2019-02-23T09:17:25.868Z,28.68
2019-02-23T09:19:52.196Z,28.52
2019-02-23T09:22:18.557Z,28.66
2019-02-23T09:24:45.099Z,28.74
2019-02-23T09:27:11.431Z,28.50
2019-02-23T09:29:37.845Z,28.47
2019-02-23T09:32:04.126Z,28.39
2019-02-23T09:37:12.813Z,28.61
2019-02-23T09:39:39.093Z,28.40
2019-02-23T09:42:07.690Z,28.46
2019-02-23T09:44:31.940Z,28.35
2019-02-23T09:46:58.323Z,28.41
2019-02-23T09:49:24.682Z,28.26
2019-02-23T09:51:51.025Z,28.22
2019-02-23T09:54:17.369Z,28.21
2019-02-23T09:56:43.710Z,28.37
2019-02-23T09:59:10.132Z,28.30
2019-02-23T10:01:36.549Z,28.22
2019-02-23T10:04:02.875Z,28.13
2019-02-23T10:06:29.281Z,28.17
2019-02-23T10:08:55.568Z,28.22
2019-02-23T10:11:21.975Z,28.23
2019-02-23T10:13:48.293Z,28.20
2019-02-23T10:16:14.697Z,28.07
2019-02-23T10:18:41.028Z,28.16
2019-02-23T10:21:07.381Z,28.05
2019-02-23T10:23:33.720Z,28.04
2019-02-23T10:26:00.053Z,28.07
2019-02-23T10:28:26.420Z,28.09
2019-02-23T10:30:52.771Z,28.10
2019-02-23T10:33:19.145Z,28.01
2019-02-23T10:35:45.585Z,28.06
2019-02-23T10:38:11.946Z,27.96
2019-02-23T10:40:38.299Z,28.11
2019-02-23T10:43:04.620Z,28.03
2019-02-23T10:45:30.950Z,28.06
2019-02-23T10:47:57.281Z,28.01
2019-02-23T10:50:23.655Z,28.00
2019-02-23T10:52:49.985Z,27.99
2019-02-23T10:55:16.326Z,28.02
2019-02-23T10:57:42.723Z,28.03
2019-02-23T11:00:09.077Z,28.15
2019-02-23T11:02:35.446Z,28.07
2019-02-23T11:05:01.789Z,27.92
2019-02-23T11:07:28.163Z,27.97
2019-02-23T11:09:54.523Z,27.87
2019-02-23T11:12:20.874Z,27.85
2019-02-23T11:14:47.256Z,28.05
2019-02-23T11:17:13.610Z,27.94
2019-02-23T11:19:40.066Z,27.91
2019-02-23T11:22:06.343Z,28.07
2019-02-23T11:24:32.697Z,28.01
2019-02-23T11:26:59.127Z,27.94
2019-02-23T11:29:25.463Z,27.92
2019-02-23T11:31:51.798Z,27.86
2019-02-23T11:34:18.195Z,27.85
2019-02-23T11:36:44.481Z,27.67
2019-02-23T11:39:10.799Z,27.76
2019-02-23T11:41:37.173Z,27.63
2019-02-23T11:44:03.526Z,27.71
2019-02-23T11:46:29.979Z,27.80
2019-02-23T11:48:56.416Z,27.78
2019-02-23T11:51:22.765Z,27.71
2019-02-23T11:53:54.912Z,27.69
2019-02-23T11:56:15.436Z,27.65
2019-02-23T11:58:41.811Z,27.64
2019-02-23T12:01:08.142Z,27.65
2019-02-23T12:03:34.517Z,27.64
2019-02-23T12:06:00.856Z,27.71
2019-02-23T12:08:27.168Z,27.63
2019-02-23T12:10:53.547Z,27.66
2019-02-23T12:13:19.926Z,27.66
2019-02-23T12:15:46.365Z,27.71
2019-02-23T12:18:12.697Z,27.63
2019-02-23T12:20:39.051Z,27.50
2019-02-23T12:23:05.417Z,27.59
2019-02-23T12:25:31.882Z,27.50
2019-02-23T12:27:58.213Z,27.47
2019-02-23T12:30:24.611Z,27.52
2019-02-23T12:32:50.962Z,27.38
2019-02-23T12:35:17.452Z,27.44
2019-02-23T12:37:43.720Z,27.49
2019-02-23T12:40:10.083Z,27.47
2019-02-23T12:42:36.426Z,27.46
2019-02-23T12:45:02.803Z,27.47
2019-02-23T12:47:29.192Z,27.53
2019-02-23T12:49:55.600Z,27.41
2019-02-23T12:52:21.957Z,27.31
2019-02-23T12:54:48.367Z,27.36
2019-02-23T12:57:14.698Z,27.40
2019-02-23T12:59:41.056Z,27.46
2019-02-23T13:02:07.455Z,27.42
2019-02-23T13:04:33.707Z,27.31
2019-02-23T13:07:00.080Z,27.44
2019-02-23T13:09:26.448Z,27.37
2019-02-23T13:11:52.859Z,27.45
2019-02-23T13:14:19.192Z,27.38
2019-02-23T13:16:45.639Z,27.38
2019-02-23T13:19:11.923Z,27.46
2019-02-23T13:21:38.312Z,27.42
2019-02-23T13:24:04.642Z,27.38
2019-02-23T13:26:30.993Z,27.31
2019-02-23T13:28:57.323Z,27.47
2019-02-23T13:31:23.680Z,27.44
2019-02-23T13:33:50.037Z,27.36
2019-02-23T13:36:16.416Z,27.32
2019-02-23T13:38:42.744Z,27.39
2019-02-23T13:41:09.126Z,27.40
2019-02-23T13:43:35.429Z,27.41
2019-02-23T13:46:01.756Z,27.34
2019-02-23T13:48:28.092Z,27.36
2019-02-23T13:50:54.416Z,27.31
2019-02-23T13:53:20.742Z,27.51
2019-02-23T13:55:47.079Z,27.50
2019-02-23T13:58:13.479Z,27.41
2019-02-23T14:00:39.825Z,27.35
2019-02-23T14:03:06.163Z,27.25
2019-02-23T14:05:32.500Z,27.27
2019-02-23T14:07:58.913Z,27.28
2019-02-23T14:10:25.253Z,27.38
2019-02-23T14:12:51.629Z,27.34
2019-02-23T14:15:17.953Z,27.35
2019-02-23T14:17:44.285Z,27.28
2019-02-23T14:20:10.743Z,27.20
2019-02-23T14:22:37.089Z,27.21
2019-02-23T14:25:03.420Z,27.15
2019-02-23T14:27:29.752Z,27.36
2019-02-23T14:29:56.188Z,27.08
2019-02-23T14:32:22.455Z,27.35
2019-02-23T14:34:48.841Z,27.32
2019-02-23T14:37:15.116Z,27.24
2019-02-23T14:39:41.536Z,27.41
2019-02-23T14:42:07.863Z,27.27
2019-02-23T14:44:34.274Z,27.32
2019-02-23T14:47:00.608Z,27.36
2019-02-23T14:49:26.942Z,27.36
2019-02-23T14:51:53.420Z,27.33
2019-02-23T14:54:19.735Z,27.25
2019-02-23T14:56:46.051Z,27.19
2019-02-23T14:59:12.323Z,27.18
2019-02-23T15:01:38.758Z,27.27
2019-02-23T15:04:05.089Z,27.34
2019-02-23T15:06:31.534Z,27.36
2019-02-23T15:08:57.881Z,27.31
2019-02-23T15:11:24.202Z,27.32
2019-02-23T15:13:50.563Z,27.45
2019-02-23T15:16:17.610Z,27.41
2019-02-23T15:18:43.254Z,27.38
2019-02-23T15:21:09.591Z,27.29
2019-02-23T15:23:35.970Z,27.31
2019-02-23T15:26:02.276Z,27.30
2019-02-23T15:28:37.475Z,27.33
2019-02-23T15:30:55.118Z,27.27
2019-02-23T15:33:21.439Z,27.36
2019-02-23T15:35:47.816Z,27.41
2019-02-23T15:38:14.170Z,27.46
2019-02-23T15:40:40.538Z,27.40
2019-02-23T15:43:06.841Z,27.37
2019-02-23T15:45:33.188Z,27.42
2019-02-23T15:47:59.615Z,27.49
2019-02-23T15:50:25.928Z,27.53
2019-02-23T15:52:52.303Z,27.41
2019-02-23T15:55:25.970Z,27.44
2019-02-23T15:57:44.958Z,27.40
2019-02-23T16:00:11.328Z,27.50
2019-02-23T16:02:37.667Z,27.54
2019-02-23T16:05:04.080Z,27.52
2019-02-23T16:07:30.562Z,27.49
2019-02-23T16:09:56.899Z,27.44
2019-02-23T16:12:23.278Z,27.51
2019-02-23T16:14:49.608Z,27.51
2019-02-23T16:17:16.012Z,27.44
2019-02-23T16:19:42.373Z,27.51
2019-02-23T16:22:08.680Z,27.62
2019-02-23T16:24:35.075Z,27.59
2019-02-23T16:27:01.474Z,27.69
2019-02-23T16:29:27.825Z,27.54
2019-02-23T16:31:54.125Z,27.64
2019-02-23T16:34:20.485Z,27.67
2019-02-23T16:36:47.167Z,27.65
2019-02-23T16:39:13.549Z,27.65
2019-02-23T16:41:39.918Z,27.65
2019-02-23T16:44:06.273Z,27.61
2019-02-23T16:46:32.591Z,27.64
2019-02-23T16:48:58.968Z,27.61
2019-02-23T16:51:25.353Z,27.63
2019-02-23T16:53:51.742Z,27.68
2019-02-23T16:56:18.075Z,27.76
2019-02-23T16:58:44.472Z,27.64
2019-02-23T17:01:10.796Z,27.67
2019-02-23T17:03:37.197Z,27.68
2019-02-23T17:06:06.580Z,27.78
2019-02-23T17:08:32.908Z,27.92
2019-02-23T17:10:59.290Z,27.95
2019-02-23T17:13:25.671Z,28.01
2019-02-23T17:15:52.021Z,27.95
2019-02-23T17:18:18.356Z,27.89
2019-02-23T17:20:44.723Z,27.88
2019-02-23T17:23:11.087Z,27.84
2019-02-23T17:25:37.420Z,27.91
2019-02-23T17:28:06.962Z,27.92
2019-02-23T17:30:30.179Z,27.96
2019-02-23T17:32:56.516Z,28.00
2019-02-23T17:35:22.853Z,27.98
2019-02-23T17:37:49.294Z,28.00
2019-02-23T17:40:15.586Z,27.92
2019-02-23T17:42:41.926Z,28.07
2019-02-23T17:45:08.264Z,28.02
2019-02-23T17:47:34.595Z,28.04
2019-02-23T17:50:00.927Z,28.09
2019-02-23T17:52:27.292Z,28.01
2019-02-23T17:54:54.547Z,28.08
2019-02-23T17:57:20.026Z,27.97
2019-02-23T17:59:46.418Z,28.07
2019-02-23T18:02:12.787Z,28.07
2019-02-23T18:04:39.199Z,28.05
2019-02-23T18:07:05.557Z,28.17
2019-02-23T18:09:31.884Z,28.20
2019-02-23T18:11:58.214Z,28.07
2019-02-23T18:14:24.587Z,28.12
2019-02-23T18:16:53.711Z,28.12
2019-02-23T18:19:20.044Z,28.28
2019-02-23T18:21:46.399Z,28.14
2019-02-23T18:24:12.737Z,28.14
2019-02-23T18:26:39.246Z,28.17
2019-02-23T18:29:05.587Z,28.25
2019-02-23T18:31:31.929Z,28.20
2019-02-23T18:33:58.292Z,28.26
2019-02-23T18:36:24.758Z,28.30
2019-02-23T18:38:51.106Z,28.30
2019-02-23T18:41:17.454Z,28.33
2019-02-23T18:43:43.852Z,28.40
2019-02-23T18:46:10.195Z,28.34
2019-02-23T18:48:36.515Z,28.33
2019-02-23T18:51:02.867Z,28.37
2019-02-23T18:53:29.244Z,28.30
2019-02-23T18:55:55.564Z,28.31
2019-02-23T18:58:23.897Z,28.29
2019-02-23T19:00:48.261Z,28.29
2019-02-23T19:03:14.595Z,28.39
2019-02-23T19:05:49.451Z,28.45
2019-02-23T19:08:07.440Z,28.32
2019-02-23T19:10:33.793Z,28.49
2019-02-23T19:13:00.161Z,28.46
2019-02-23T19:15:26.494Z,28.37
2019-02-23T19:17:52.830Z,28.46
2019-02-23T19:20:19.189Z,28.41
2019-02-23T19:22:45.516Z,28.53
2019-02-23T19:25:11.844Z,28.53
2019-02-23T19:27:40.437Z,28.42
2019-02-23T19:30:06.787Z,28.48
2019-02-23T19:32:33.112Z,28.58
2019-02-23T19:34:59.453Z,28.72
2019-02-23T19:37:25.784Z,28.69
2019-02-23T19:39:52.130Z,28.71
2019-02-23T19:42:18.528Z,28.65
2019-02-23T19:44:45.186Z,28.73
2019-02-23T19:47:11.570Z,28.78
2019-02-23T19:49:37.875Z,28.75
2019-02-23T19:52:04.251Z,28.77
2019-02-23T19:54:30.590Z,28.74
2019-02-23T19:56:56.998Z,28.73
2019-02-23T19:59:23.320Z,28.83
2019-02-23T20:01:49.727Z,28.72
2019-02-23T20:04:16.066Z,28.88
2019-02-23T20:06:42.412Z,28.99
2019-02-23T20:09:08.742Z,28.89
2019-02-23T20:11:35.117Z,28.89
2019-02-23T20:14:01.458Z,28.83
2019-02-23T20:16:27.790Z,28.88
2019-02-23T20:18:54.110Z,28.90
2019-02-23T20:21:20.438Z,28.97
2019-02-23T20:23:48.050Z,29.02
2019-02-23T20:26:13.153Z,28.88
2019-02-23T20:28:39.442Z,28.94
2019-02-23T20:31:05.770Z,28.92
2019-02-23T20:33:32.104Z,28.93
2019-02-23T20:35:58.422Z,29.04
2019-02-23T20:38:24.765Z,29.04
2019-02-23T20:40:51.107Z,28.96
2019-02-23T20:43:17.431Z,29.15
2019-02-23T20:45:43.928Z,29.25
2019-02-23T20:48:10.203Z,29.24
2019-02-23T20:50:36.616Z,29.12
2019-02-23T20:53:02.954Z,29.16
2019-02-23T20:55:29.288Z,28.95
2019-02-23T20:57:55.619Z,28.93
2019-02-23T21:00:21.938Z,29.04
2019-02-23T21:02:48.255Z,28.99
2019-02-23T21:05:14.595Z,28.96
2019-02-23T21:07:40.921Z,29.24
2019-02-23T21:10:07.251Z,29.11
2019-02-23T21:12:33.581Z,29.04
2019-02-23T21:14:59.951Z,29.09
2019-02-23T21:17:26.308Z,29.07
2019-02-23T21:19:52.658Z,29.02
2019-02-23T21:22:19.433Z,29.17
2019-02-23T21:24:45.330Z,28.96
2019-02-23T21:27:13.183Z,29.19
2019-02-23T21:29:38.047Z,29.31
2019-02-23T21:32:04.355Z,29.07
2019-02-23T21:34:31.465Z,29.06
2019-02-23T21:36:57.790Z,29.11
2019-02-23T21:39:24.132Z,29.17
2019-02-23T21:41:50.450Z,29.09
2019-02-23T21:44:16.916Z,29.38
2019-02-23T21:46:43.255Z,29.32
2019-02-23T21:49:09.593Z,29.28
2019-02-23T21:51:35.924Z,29.05
2019-02-23T21:54:09.922Z,29.11
2019-02-23T21:56:28.576Z,29.37
2019-02-23T21:58:54.917Z,29.23
2019-02-23T22:01:21.275Z,29.24
2019-02-23T22:03:47.621Z,29.42
2019-02-23T22:06:13.966Z,29.25
2019-02-23T22:08:40.292Z,29.35
2019-02-23T22:11:06.705Z,29.41
2019-02-23T22:13:32.953Z,29.19
2019-02-23T22:15:59.310Z,29.30
2019-02-23T22:18:25.639Z,29.32
2019-02-23T22:20:52.178Z,29.38
2019-02-23T22:23:18.492Z,29.26
2019-02-23T22:25:44.832Z,29.56
2019-02-23T22:28:11.162Z,29.43
2019-02-23T22:30:37.488Z,29.55
2019-02-23T22:33:03.822Z,29.37
2019-02-23T22:35:30.153Z,29.45
2019-02-23T22:37:56.635Z,29.37
2019-02-23T22:40:22.949Z,29.31
2019-02-23T22:42:49.449Z,29.39
2019-02-23T22:45:15.786Z,29.38
2019-02-23T22:47:42.121Z,29.53
2019-02-23T22:50:08.504Z,29.49
2019-02-23T22:52:34.847Z,29.48
2019-02-23T22:55:01.196Z,29.45
2019-02-23T22:57:27.602Z,29.51
2019-02-23T22:59:53.969Z,29.28
2019-02-23T23:02:20.334Z,29.47
2019-02-23T23:04:46.694Z,29.53
2019-02-23T23:07:13.069Z,29.56
2019-02-23T23:09:39.617Z,29.57
2019-02-23T23:12:05.969Z,29.49
2019-02-23T23:14:32.295Z,29.45
2019-02-23T23:16:58.790Z,29.51
2019-02-23T23:19:25.117Z,29.49
2019-02-23T23:21:51.449Z,29.52
2019-02-23T23:24:17.815Z,29.52
2019-02-23T23:26:44.155Z,29.51
2019-02-23T23:29:10.512Z,29.50
2019-02-23T23:31:36.847Z,29.58
2019-02-23T23:34:03.235Z,29.45
2019-02-23T23:36:32.623Z,29.64
2019-02-23T23:38:58.950Z,29.45
2019-02-23T23:41:25.280Z,29.42
2019-02-23T23:43:51.614Z,29.53
2019-02-23T23:46:18.055Z,29.52
2019-02-23T23:48:44.399Z,29.74
2019-02-23T23:51:10.732Z,29.66
2019-02-23T23:53:37.067Z,29.51
2019-02-23T23:56:03.430Z,29.54
2019-02-23T23:58:29.848Z,29.49
